sensor_id;sensor_type;location;lat;lon;timestamp;P1;durP1;ratioP1;P2;durP2;ratioP2
27979;SDS011;15315;50.836;4.430;2024-01-07T00:07:00;14.75;;;9.32;;
27979;SDS011;15315;50.836;4.430;2024-01-07T00:17:00;15.60;;;10.00;;
27979;SDS011;15315;50.836;4.430;2024-01-07T00:27:00;18.38;;;10.30;;
27979;SDS011;15315;50.836;4.430;2024-01-07T00:37:02;17.40;;;11.40;;
27979;SDS011;15315;50.836;4.430;2024-01-07T00:47:02;15.80;;;10.73;;
27979;SDS011;15315;50.836;4.430;2024-01-07T00:57:03;16.75;;;11.38;;
27979;SDS011;15315;50.836;4.430;2024-01-07T01:07:04;15.75;;;11.15;;
27979;SDS011;15315;50.836;4.430;2024-01-07T01:17:04;17.08;;;11.38;;
27979;SDS011;15315;50.836;4.430;2024-01-07T01:27:04;17.77;;;11.07;;
27979;SDS011;15315;50.836;4.430;2024-01-07T01:37:05;16.70;;;10.85;;
27979;SDS011;15315;50.836;4.430;2024-01-07T01:47:05;18.17;;;12.48;;
27979;SDS011;15315;50.836;4.430;2024-01-07T01:57:07;19.77;;;12.40;;
27979;SDS011;15315;50.836;4.430;2024-01-07T02:07:13;16.85;;;10.95;;
27979;SDS011;15315;50.836;4.430;2024-01-07T02:17:14;17.33;;;10.80;;
27979;SDS011;15315;50.836;4.430;2024-01-07T02:27:15;16.38;;;9.80;;
27979;SDS011;15315;50.836;4.430;2024-01-07T02:37:16;15.57;;;9.50;;
27979;SDS011;15315;50.836;4.430;2024-01-07T02:47:16;14.25;;;9.48;;
27979;SDS011;15315;50.836;4.430;2024-01-07T02:57:16;16.58;;;10.57;;
27979;SDS011;15315;50.836;4.430;2024-01-07T03:07:17;19.80;;;12.20;;
27979;SDS011;15315;50.836;4.430;2024-01-07T03:17:17;24.02;;;14.13;;
27979;SDS011;15315;50.836;4.430;2024-01-07T03:27:18;22.90;;;13.70;;
27979;SDS011;15315;50.836;4.430;2024-01-07T03:37:18;25.55;;;14.75;;
27979;SDS011;15315;50.836;4.430;2024-01-07T03:47:19;26.63;;;15.65;;
27979;SDS011;15315;50.836;4.430;2024-01-07T03:57:19;25.08;;;15.05;;
27979;SDS011;15315;50.836;4.430;2024-01-07T04:07:19;29.45;;;16.98;;
27979;SDS011;15315;50.836;4.430;2024-01-07T04:17:20;37.33;;;19.10;;
27979;SDS011;15315;50.836;4.430;2024-01-07T04:27:20;43.92;;;23.95;;
27979;SDS011;15315;50.836;4.430;2024-01-07T04:37:21;46.17;;;24.15;;
27979;SDS011;15315;50.836;4.430;2024-01-07T04:47:31;42.85;;;22.90;;
27979;SDS011;15315;50.836;4.430;2024-01-07T04:57:36;39.00;;;23.08;;
27979;SDS011;15315;50.836;4.430;2024-01-07T05:07:37;51.47;;;28.95;;
27979;SDS011;15315;50.836;4.430;2024-01-07T05:17:37;54.67;;;28.55;;
27979;SDS011;15315;50.836;4.430;2024-01-07T05:27:37;71.57;;;37.25;;
27979;SDS011;15315;50.836;4.430;2024-01-07T05:37:38;49.72;;;27.27;;
27979;SDS011;15315;50.836;4.430;2024-01-07T05:47:38;47.80;;;26.25;;
27979;SDS011;15315;50.836;4.430;2024-01-07T05:57:40;65.07;;;33.00;;
27979;SDS011;15315;50.836;4.430;2024-01-07T06:07:41;46.30;;;25.40;;
27979;SDS011;15315;50.836;4.430;2024-01-07T06:17:41;44.65;;;23.50;;
27979;SDS011;15315;50.836;4.430;2024-01-07T06:27:41;48.92;;;26.35;;
27979;SDS011;15315;50.836;4.430;2024-01-07T06:37:42;45.90;;;23.92;;
27979;SDS011;15315;50.836;4.430;2024-01-07T06:47:42;44.42;;;22.25;;
27979;SDS011;15315;50.836;4.430;2024-01-07T06:57:43;46.67;;;22.67;;
27979;SDS011;15315;50.836;4.430;2024-01-07T07:07:43;42.95;;;23.00;;
27979;SDS011;15315;50.836;4.430;2024-01-07T07:17:43;46.90;;;22.33;;
27979;SDS011;15315;50.836;4.430;2024-01-07T07:27:44;47.00;;;22.92;;
27979;SDS011;15315;50.836;4.430;2024-01-07T07:37:44;54.67;;;25.85;;
27979;SDS011;15315;50.836;4.430;2024-01-07T07:47:45;57.13;;;25.03;;
27979;SDS011;15315;50.836;4.430;2024-01-07T07:57:45;60.63;;;27.55;;
27979;SDS011;15315;50.836;4.430;2024-01-07T08:07:46;58.80;;;27.67;;
27979;SDS011;15315;50.836;4.430;2024-01-07T08:17:46;59.08;;;26.88;;
27979;SDS011;15315;50.836;4.430;2024-01-07T08:27:47;52.53;;;24.60;;
27979;SDS011;15315;50.836;4.430;2024-01-07T08:37:47;45.15;;;22.00;;
27979;SDS011;15315;50.836;4.430;2024-01-07T08:47:48;34.05;;;18.08;;
27979;SDS011;15315;50.836;4.430;2024-01-07T08:57:48;32.95;;;17.65;;
27979;SDS011;15315;50.836;4.430;2024-01-07T09:07:49;33.45;;;16.55;;
27979;SDS011;15315;50.836;4.430;2024-01-07T09:17:49;33.58;;;18.35;;
27979;SDS011;15315;50.836;4.430;2024-01-07T09:27:50;39.20;;;19.52;;
27979;SDS011;15315;50.836;4.430;2024-01-07T09:37:50;41.95;;;20.15;;
27979;SDS011;15315;50.836;4.430;2024-01-07T09:47:51;32.47;;;18.83;;
27979;SDS011;15315;50.836;4.430;2024-01-07T09:57:51;31.20;;;18.13;;
27979;SDS011;15315;50.836;4.430;2024-01-07T10:07:52;32.80;;;17.42;;
27979;SDS011;15315;50.836;4.430;2024-01-07T10:17:55;34.55;;;18.30;;
27979;SDS011;15315;50.836;4.430;2024-01-07T10:28:02;31.85;;;18.77;;
27979;SDS011;15315;50.836;4.430;2024-01-07T10:38:03;35.25;;;19.42;;
27979;SDS011;15315;50.836;4.430;2024-01-07T10:48:04;31.70;;;19.48;;
27979;SDS011;15315;50.836;4.430;2024-01-07T10:58:07;38.47;;;21.07;;
27979;SDS011;15315;50.836;4.430;2024-01-07T11:08:11;33.28;;;19.50;;
27979;SDS011;15315;50.836;4.430;2024-01-07T11:18:19;31.83;;;18.05;;
27979;SDS011;15315;50.836;4.430;2024-01-07T11:28:24;26.48;;;15.43;;
27979;SDS011;15315;50.836;4.430;2024-01-07T11:38:50;30.77;;;15.77;;
27979;SDS011;15315;50.836;4.430;2024-01-07T11:48:52;28.42;;;13.75;;
27979;SDS011;15315;50.836;4.430;2024-01-07T11:58:54;26.40;;;14.27;;
27979;SDS011;15315;50.836;4.430;2024-01-07T12:08:56;25.23;;;13.75;;
27979;SDS011;15315;50.836;4.430;2024-01-07T12:18:56;29.35;;;14.32;;
27979;SDS011;15315;50.836;4.430;2024-01-07T12:28:57;31.98;;;14.05;;
27979;SDS011;15315;50.836;4.430;2024-01-07T12:39:00;26.80;;;14.00;;
27979;SDS011;15315;50.836;4.430;2024-01-07T12:49:00;24.50;;;13.02;;
27979;SDS011;15315;50.836;4.430;2024-01-07T12:59:00;22.55;;;12.23;;
27979;SDS011;15315;50.836;4.430;2024-01-07T13:09:01;27.75;;;12.65;;
27979;SDS011;15315;50.836;4.430;2024-01-07T13:19:04;25.92;;;11.73;;
27979;SDS011;15315;50.836;4.430;2024-01-07T13:29:04;23.45;;;12.43;;
27979;SDS011;15315;50.836;4.430;2024-01-07T13:39:04;19.48;;;11.63;;
27979;SDS011;15315;50.836;4.430;2024-01-07T13:49:07;53.97;;;29.95;;
27979;SDS011;15315;50.836;4.430;2024-01-07T13:59:08;21.38;;;11.18;;
27979;SDS011;15315;50.836;4.430;2024-01-07T14:09:09;19.83;;;10.82;;
27979;SDS011;15315;50.836;4.430;2024-01-07T14:19:09;16.90;;;9.70;;
27979;SDS011;15315;50.836;4.430;2024-01-07T14:29:09;18.42;;;11.65;;
27979;SDS011;15315;50.836;4.430;2024-01-07T14:39:10;16.38;;;10.73;;
27979;SDS011;15315;50.836;4.430;2024-01-07T14:49:10;18.02;;;11.55;;
27979;SDS011;15315;50.836;4.430;2024-01-07T14:59:11;24.23;;;11.65;;
27979;SDS011;15315;50.836;4.430;2024-01-07T15:09:12;24.17;;;12.80;;
27979;SDS011;15315;50.836;4.430;2024-01-07T15:19:14;23.98;;;13.18;;
27979;SDS011;15315;50.836;4.430;2024-01-07T15:29:15;23.45;;;12.80;;
27979;SDS011;15315;50.836;4.430;2024-01-07T15:39:15;16.83;;;11.65;;
27979;SDS011;15315;50.836;4.430;2024-01-07T15:49:18;15.32;;;10.82;;
27979;SDS011;15315;50.836;4.430;2024-01-07T15:59:18;17.17;;;9.32;;
27979;SDS011;15315;50.836;4.430;2024-01-07T16:09:18;14.35;;;8.23;;
27979;SDS011;15315;50.836;4.430;2024-01-07T16:19:19;13.40;;;8.07;;
27979;SDS011;15315;50.836;4.430;2024-01-07T16:29:20;12.30;;;8.43;;
27979;SDS011;15315;50.836;4.430;2024-01-07T16:39:20;8.57;;;5.20;;
27979;SDS011;15315;50.836;4.430;2024-01-07T16:49:21;8.80;;;5.05;;
27979;SDS011;15315;50.836;4.430;2024-01-07T16:59:21;6.13;;;3.70;;
27979;SDS011;15315;50.836;4.430;2024-01-07T17:09:22;5.60;;;3.13;;
27979;SDS011;15315;50.836;4.430;2024-01-07T17:19:23;6.13;;;3.70;;
27979;SDS011;15315;50.836;4.430;2024-01-07T17:29:24;6.47;;;3.95;;
27979;SDS011;15315;50.836;4.430;2024-01-07T17:39:25;7.05;;;4.22;;
27979;SDS011;15315;50.836;4.430;2024-01-07T17:49:25;5.00;;;3.58;;
27979;SDS011;15315;50.836;4.430;2024-01-07T17:59:26;7.10;;;4.05;;
27979;SDS011;15315;50.836;4.430;2024-01-07T18:09:27;7.40;;;3.80;;
27979;SDS011;15315;50.836;4.430;2024-01-07T18:19:27;6.82;;;3.55;;
27979;SDS011;15315;50.836;4.430;2024-01-07T18:29:28;6.68;;;3.30;;
27979;SDS011;15315;50.836;4.430;2024-01-07T18:39:29;5.13;;;2.83;;
27979;SDS011;15315;50.836;4.430;2024-01-07T18:49:29;7.55;;;3.03;;
27979;SDS011;15315;50.836;4.430;2024-01-07T18:59:30;4.57;;;2.95;;
27979;SDS011;15315;50.836;4.430;2024-01-07T19:09:31;5.10;;;2.90;;
27979;SDS011;15315;50.836;4.430;2024-01-07T19:19:33;7.53;;;4.00;;
27979;SDS011;15315;50.836;4.430;2024-01-07T19:29:33;7.50;;;3.72;;
27979;SDS011;15315;50.836;4.430;2024-01-07T19:39:34;6.00;;;3.67;;
27979;SDS011;15315;50.836;4.430;2024-01-07T19:49:35;5.50;;;3.42;;
27979;SDS011;15315;50.836;4.430;2024-01-07T19:59:36;7.43;;;3.88;;
27979;SDS011;15315;50.836;4.430;2024-01-07T20:09:36;9.32;;;4.18;;
27979;SDS011;15315;50.836;4.430;2024-01-07T20:19:37;6.13;;;3.83;;
27979;SDS011;15315;50.836;4.430;2024-01-07T20:29:39;13.07;;;3.40;;
27979;SDS011;15315;50.836;4.430;2024-01-07T20:39:40;7.05;;;3.58;;
27979;SDS011;15315;50.836;4.430;2024-01-07T20:49:40;9.75;;;3.65;;
27979;SDS011;15315;50.836;4.430;2024-01-07T20:59:42;9.23;;;3.67;;
27979;SDS011;15315;50.836;4.430;2024-01-07T21:09:43;9.07;;;4.03;;
27979;SDS011;15315;50.836;4.430;2024-01-07T21:19:44;5.85;;;3.45;;
27979;SDS011;15315;50.836;4.430;2024-01-07T21:29:47;8.80;;;3.80;;
27979;SDS011;15315;50.836;4.430;2024-01-07T21:39:48;8.38;;;4.55;;
27979;SDS011;15315;50.836;4.430;2024-01-07T21:49:49;9.52;;;4.05;;
27979;SDS011;15315;50.836;4.430;2024-01-07T21:59:50;10.60;;;4.65;;
27979;SDS011;15315;50.836;4.430;2024-01-07T22:09:51;9.40;;;5.38;;
27979;SDS011;15315;50.836;4.430;2024-01-07T22:19:51;8.60;;;5.32;;
27979;SDS011;15315;50.836;4.430;2024-01-07T22:29:51;13.73;;;6.68;;
27979;SDS011;15315;50.836;4.430;2024-01-07T22:39:58;12.48;;;6.45;;
27979;SDS011;15315;50.836;4.430;2024-01-07T22:49:59;17.38;;;6.88;;
27979;SDS011;15315;50.836;4.430;2024-01-07T22:59:59;14.05;;;6.93;;
27979;SDS011;15315;50.836;4.430;2024-01-07T23:09:59;12.77;;;7.30;;
27979;SDS011;15315;50.836;4.430;2024-01-07T23:20:00;17.58;;;7.93;;
27979;SDS011;15315;50.836;4.430;2024-01-07T23:30:00;14.88;;;7.68;;
27979;SDS011;15315;50.836;4.430;2024-01-07T23:40:00;20.63;;;8.48;;
27979;SDS011;15315;50.836;4.430;2024-01-07T23:50:01;15.55;;;9.00;;
